Time;durP1;ratioP1;P1;durP2;ratioP2;P2;SDS_P1;SDS_P2;PMS_P1;PMS_P2;Temp;Humidity;BMP_temperature;BMP_pressure;BME280_temperature;BME280_humidity;BME280_pressure;Samples;Min_cycle;Max_cycle;Signal;HPM_P1;HPM_P2
2022/06/12 00:01:19;;;;;;;2.60;1.58;;;;;;;13.21;74.47;102208.09;4988771;28;20076;-68
2022/06/12 00:03:46;;;;;;;5.55;1.88;;;;;;;13.12;74.00;102199.56;4993310;28;20033;-69
2022/06/12 00:06:14;;;;;;;5.40;1.38;;;;;;;13.08;74.60;102200.75;5000904;28;20030;-69
2022/06/12 00:08:40;;;;;;;3.33;1.50;;;;;;;12.99;75.44;102199.44;4987858;28;20046;-69
2022/06/12 00:11:08;;;;;;;4.57;1.60;;;;;;;12.99;75.30;102199.44;4988758;28;20077;-69
2022/06/12 00:13:39;;;;;;;3.65;1.58;;;;;;;12.99;74.75;102199.44;4987883;28;20092;-69
2022/06/12 00:16:05;;;;;;;5.05;1.58;;;;;;;12.99;74.73;102202.19;4987694;28;20390;-69
2022/06/12 00:18:31;;;;;;;5.03;1.67;;;;;;;12.98;74.43;102203.16;4988936;28;20560;-69
2022/06/12 00:21:12;;;;;;;7.18;1.58;;;;;;;12.93;74.60;102192.50;4987878;28;20043;-68
2022/06/12 00:23:46;;;;;;;9.30;2.53;;;;;;;12.91;75.18;102199.91;4988471;28;20030;-69
2022/06/12 00:26:14;;;;;;;4.80;1.50;;;;;;;12.84;75.69;102204.00;4988678;28;20479;-69
2022/06/12 00:28:39;;;;;;;4.93;1.42;;;;;;;12.82;74.90;102200.44;4987921;28;20642;-69
2022/06/12 00:31:05;;;;;;;2.95;1.67;;;;;;;12.82;75.00;102196.84;4986997;28;20493;-69
2022/06/12 00:33:31;;;;;;;4.10;1.50;;;;;;;12.77;74.89;102202.59;4990506;28;20061;-69
2022/06/12 00:35:57;;;;;;;5.35;1.65;;;;;;;12.72;75.88;102196.53;4975843;28;20070;-69
2022/06/12 00:38:22;;;;;;;4.78;2.17;;;;;;;12.63;76.30;102197.06;4988481;28;20462;-69
2022/06/12 00:40:48;;;;;;;4.68;2.30;;;;;;;12.59;75.51;102201.84;4988568;28;20521;-69
2022/06/12 00:43:15;;;;;;;9.55;2.00;;;;;;;12.57;75.42;102200.16;4987840;28;20426;-69
2022/06/12 00:45:49;;;;;;;5.55;1.65;;;;;;;12.54;76.13;102201.22;4987154;28;20042;-69
2022/06/12 00:48:17;;;;;;;4.78;1.40;;;;;;;12.50;76.03;102200.53;4988820;28;20093;-69
2022/06/12 00:50:49;;;;;;;7.07;1.95;;;;;;;12.49;76.00;102200.63;4987538;28;20059;-69
2022/06/12 00:53:20;;;;;;;5.47;1.65;;;;;;;12.46;75.88;102204.41;4988273;28;20097;-69
2022/06/12 00:55:55;;;;;;;5.13;1.77;;;;;;;12.43;76.43;102203.72;4988349;28;20042;-69
2022/06/12 00:58:24;;;;;;;7.13;2.13;;;;;;;12.39;76.24;102207.59;4988660;28;20037;-69
2022/06/12 01:00:50;;;;;;;5.78;1.92;;;;;;;12.32;76.79;102196.16;4987130;28;20050;-69
2022/06/12 01:03:17;;;;;;;5.57;1.65;;;;;;;12.32;76.95;102198.00;4988577;28;20181;-69
2022/06/12 01:08:29;;;;;;;8.00;2.20;;;;;;;12.27;75.86;102195.56;4987795;28;20043;-69
2022/06/12 01:10:58;;;;;;;7.47;1.80;;;;;;;12.23;76.66;102197.56;4987528;28;20034;-69
2022/06/12 01:13:28;;;;;;;6.28;1.50;;;;;;;12.22;76.09;102192.22;4987206;28;20046;-68
2022/06/12 01:15:59;;;;;;;3.03;1.50;;;;;;;12.20;76.26;102196.84;4986370;28;20046;-68
2022/06/12 01:18:29;;;;;;;2.22;1.33;;;;;;;12.17;76.43;102205.22;4987032;28;20398;-69
2022/06/12 01:21:03;;;;;;;3.25;2.28;;;;;;;12.15;76.44;102202.56;4970016;28;20143;-69
2022/06/12 01:24:03;;;;;;;3.38;1.77;;;;;;;12.13;75.18;102207.25;4987783;28;20506;-69
2022/06/12 01:26:44;;;;;;;2.55;1.70;;;;;;;12.09;76.14;102193.88;4987805;28;20125;-69
2022/06/12 01:29:27;;;;;;;4.95;1.65;;;;;;;12.06;76.29;102208.56;4996688;28;20521;-69
2022/06/12 01:32:05;;;;;;;3.70;1.75;;;;;;;12.01;76.53;102199.75;4986856;28;20030;-69
2022/06/12 01:35:03;;;;;;;4.18;1.73;;;;;;;11.99;75.96;102194.41;4996965;28;20038;-69
2022/06/12 01:37:51;;;;;;;4.55;1.60;;;;;;;11.97;76.05;102200.91;5004146;28;20133;-69
2022/06/12 01:40:43;;;;;;;8.10;2.13;;;;;;;11.96;77.52;102197.28;4986510;28;20089;-70
2022/06/12 01:43:18;;;;;;;4.20;2.33;;;;;;;11.97;77.18;102188.13;4999556;28;20097;-69
2022/06/12 01:45:56;;;;;;;7.35;2.40;;;;;;;11.93;77.86;102183.81;4986253;28;20040;-69
2022/06/12 01:48:54;;;;;;;3.40;2.17;;;;;;;11.92;76.68;102187.53;4969952;28;20034;-69
2022/06/12 01:51:40;;;;;;;5.95;2.03;;;;;;;11.88;76.94;102188.66;4987468;28;20050;-69
2022/06/12 01:54:16;;;;;;;6.43;2.00;;;;;;;11.80;77.26;102188.19;4969308;28;20057;-69
2022/06/12 01:57:15;;;;;;;5.75;2.13;;;;;;;11.77;77.13;102188.34;4987308;28;20439;-70
2022/06/12 01:59:48;;;;;;;6.50;2.10;;;;;;;11.71;77.06;102183.25;4981377;28;20050;-69
2022/06/12 02:02:37;;;;;;;7.72;2.50;;;;;;;11.65;77.77;102181.72;4987110;28;20125;-69
2022/06/12 02:05:16;;;;;;;6.32;2.38;;;;;;;11.61;77.67;102174.72;5001684;28;20044;-69
2022/06/12 02:07:50;;;;;;;6.82;2.55;;;;;;;11.61;77.29;102188.34;4996428;28;20042;-69
2022/06/12 02:10:28;;;;;;;6.97;2.45;;;;;;;11.56;77.62;102182.22;4970207;28;20038;-69
2022/06/12 02:13:12;;;;;;;6.68;2.05;;;;;;;11.53;77.71;102190.59;4987273;28;20482;-69
2022/06/12 02:15:59;;;;;;;4.35;1.90;;;;;;;11.51;77.44;102187.06;4985842;28;20026;-69
2022/06/12 02:18:36;;;;;;;4.38;2.20;;;;;;;11.50;78.28;102191.63;4987167;28;20042;-69
2022/06/12 02:21:16;;;;;;;6.28;2.20;;;;;;;11.52;78.08;102193.38;4969648;28;20038;-69
2022/06/12 02:23:52;;;;;;;7.57;2.22;;;;;;;11.43;78.37;102195.69;4987100;28;20348;-70
2022/06/12 02:26:21;;;;;;;6.45;2.13;;;;;;;11.39;78.91;102193.22;4988001;28;20034;-70
2022/06/12 02:28:52;;;;;;;5.78;2.78;;;;;;;11.35;79.36;102197.06;4986368;28;20428;-69
2022/06/12 02:31:25;;;;;;;6.97;2.40;;;;;;;11.34;79.58;102192.56;4988408;28;20043;-70
2022/06/12 02:33:57;;;;;;;5.88;2.20;;;;;;;11.34;80.20;102184.41;4995214;28;20111;-70
2022/06/12 02:36:26;;;;;;;4.38;2.42;;;;;;;11.40;79.06;102184.06;5010414;28;20055;-70
2022/06/12 02:39:15;;;;;;;7.40;3.40;;;;;;;11.39;79.01;102185.91;5008345;28;20065;-69
2022/06/12 02:41:47;;;;;;;7.10;2.92;;;;;;;11.39;79.27;102182.31;4990783;28;20121;-70
2022/06/12 02:44:20;;;;;;;6.72;2.92;;;;;;;11.36;79.18;102183.34;4989641;28;20038;-70
2022/06/12 02:46:50;;;;;;;5.63;2.47;;;;;;;11.34;79.19;102176.22;4990613;28;20088;-70
2022/06/12 02:49:17;;;;;;;8.70;2.47;;;;;;;11.32;79.10;102178.13;4993807;28;20457;-70
2022/06/12 02:51:53;;;;;;;5.90;2.47;;;;;;;11.29;79.43;102173.75;4990500;28;20033;-70
2022/06/12 02:54:26;;;;;;;7.43;2.88;;;;;;;11.26;78.88;102171.19;4990721;28;20061;-70
2022/06/12 02:56:54;;;;;;;;;;;;;;;11.34;76.89;102168.06;4991049;28;20042;-70
2022/06/12 02:59:51;;;;;;;4.82;2.78;;;;;;;11.30;78.86;102167.34;4989825;28;19917;-70
2022/06/12 03:02:35;;;;;;;4.80;2.25;;;;;;;11.29;79.40;102161.97;4949598;28;20054;-70
2022/06/12 03:05:22;;;;;;;5.97;3.00;;;;;;;11.26;79.93;102165.72;5004280;28;20038;-70
2022/06/12 03:07:50;;;;;;;3.85;2.45;;;;;;;11.21;80.39;102165.97;4999985;28;20379;-70
2022/06/12 03:10:21;;;;;;;5.82;2.65;;;;;;;11.19;80.09;102175.19;4996885;28;20460;-70
2022/06/12 03:12:48;;;;;;;4.70;3.03;;;;;;;11.20;80.46;102172.41;4990346;28;20478;-70
2022/06/12 03:15:35;;;;;;;14.60;2.97;;;;;;;11.19;80.15;102169.75;4988860;28;20058;-70
2022/06/12 03:18:02;;;;;;;4.82;2.95;;;;;;;11.17;81.15;102179.84;4990189;28;20030;-70
2022/06/12 03:20:36;;;;;;;10.02;2.95;;;;;;;11.17;80.82;102186.19;4972160;28;20494;-70
2022/06/12 03:23:32;;;;;;;6.55;2.92;;;;;;;11.17;80.85;102186.19;4972531;28;20133;-70
2022/06/12 03:25:59;;;;;;;8.35;2.88;;;;;;;11.19;79.71;102180.63;4986758;28;20038;-70
2022/06/12 03:28:41;;;;;;;6.93;2.50;;;;;;;11.20;79.50;102177.84;4995324;28;20034;-70
2022/06/12 03:31:50;;;;;;;4.10;2.93;;;;;;;11.22;79.66;102183.19;4985377;28;20041;-70
2022/06/12 03:34:27;;;;;;;6.20;3.03;;;;;;;11.21;80.64;102181.44;4971331;28;20300;-70
2022/06/12 03:37:01;;;;;;;10.65;3.53;;;;;;;11.21;81.28;102182.31;5009599;28;20038;-70
2022/06/12 03:39:37;;;;;;;7.63;3.60;;;;;;;11.22;81.61;102185.94;4989746;28;20034;-69
2022/06/12 03:42:14;;;;;;;7.28;3.85;;;;;;;11.26;82.03;102181.19;4972040;28;20092;-70
2022/06/12 03:44:52;;;;;;;7.50;3.58;;;;;;;11.27;81.72;102182.97;4987738;28;20494;-70
2022/06/12 03:47:25;;;;;;;10.10;3.90;;;;;;;11.31;81.62;102181.84;4989655;28;20560;-70
2022/06/12 03:49:56;;;;;;;;;;;;;;;11.41;79.06;102188.53;4971949;28;20042;-70
2022/06/12 03:52:29;;;;;;;9.60;3.45;;;;;;;11.44;80.37;102180.22;4988941;28;19936;-70
2022/06/12 03:57:50;;;;;;;8.95;3.88;;;;;;;11.50;80.11;102190.75;4970965;28;20049;-70
2022/06/12 03:58:17;;;;;;;5.93;3.47;;;;;;;11.53;80.67;102187.00;4997222;28;20039;-70
2022/06/12 04:00:45;;;;;;;6.50;3.22;;;;;;;11.55;80.65;102177.75;4987619;28;20375;-70
2022/06/12 04:03:27;;;;;;;10.68;3.70;;;;;;;11.55;80.75;102185.06;4989268;28;20034;-70
2022/06/12 04:05:56;;;;;;;8.55;3.70;;;;;;;11.57;80.71;102186.75;4989069;28;20109;-70
2022/06/12 04:08:26;;;;;;;8.02;3.97;;;;;;;11.61;81.76;102181.97;4989223;28;20039;-70
2022/06/12 04:10:53;;;;;;;12.85;4.45;;;;;;;11.64;81.05;102187.28;4989024;28;20521;-70
2022/06/12 04:13:20;;;;;;;7.35;3.70;;;;;;;11.68;80.95;102186.16;4988863;28;20050;-70
2022/06/12 04:15:55;;;;;;;13.00;4.40;;;;;;;11.69;81.00;102187.91;4988117;28;20062;-70
2022/06/12 04:18:21;;;;;;;5.90;3.40;;;;;;;11.77;80.45;102192.94;4971441;28;20069;-69
2022/06/12 04:20:58;;;;;;;7.28;3.80;;;;;;;11.83;80.32;102182.59;4971779;28;20035;-70
2022/06/12 04:23:48;;;;;;;11.98;4.53;;;;;;;11.87;80.08;102192.34;4987355;28;20048;-69
2022/06/12 04:26:42;;;;;;;11.35;3.88;;;;;;;11.90;79.55;102189.47;4987265;28;20038;-71
2022/06/12 04:29:10;;;;;;;11.13;4.15;;;;;;;11.89;80.51;102190.44;4987197;28;20034;-70
2022/06/12 04:31:37;;;;;;;18.92;4.55;;;;;;;11.93;80.38;102202.91;4987982;28;20042;-70
2022/06/12 04:34:23;;;;;;;13.30;4.60;;;;;;;11.99;79.35;102199.84;4961019;28;20041;-70
2022/06/12 04:36:53;;;;;;;12.95;4.78;;;;;;;12.00;80.14;102193.44;5003599;28;20034;-70
2022/06/12 04:39:23;;;;;;;9.70;3.97;;;;;;;12.08;79.59;102208.50;4988651;28;20026;-70
2022/06/12 04:41:49;;;;;;;9.63;4.50;;;;;;;12.13;79.51;102203.66;4971528;28;20041;-70
2022/06/12 04:44:15;;;;;;;11.88;4.95;;;;;;;12.15;78.84;102207.16;4970141;28;20402;-70
2022/06/12 04:46:43;;;;;;;15.88;4.78;;;;;;;12.18;78.87;102207.88;4969848;28;20137;-71
2022/06/12 04:49:15;;;;;;;7.50;3.92;;;;;;;12.23;78.86;102204.88;4987648;28;20464;-70
2022/06/12 04:51:41;;;;;;;9.67;3.77;;;;;;;12.28;78.29;102204.63;4988486;28;20041;-70
2022/06/12 04:54:07;;;;;;;7.70;4.03;;;;;;;12.28;78.45;102210.06;4987048;28;20049;-70
2022/06/12 04:56:36;;;;;;;14.23;4.20;;;;;;;12.34;78.03;102209.72;4970426;28;20038;-70
2022/06/12 04:59:03;;;;;;;12.77;5.30;;;;;;;12.36;77.74;102210.50;4986545;28;20041;-70
2022/06/12 05:01:29;;;;;;;13.00;4.10;;;;;;;12.42;77.87;102202.84;4987521;28;20518;-70
2022/06/12 05:03:56;;;;;;;10.48;4.20;;;;;;;12.49;77.77;102208.81;4991728;28;20117;-70
2022/06/12 05:06:22;;;;;;;11.10;4.05;;;;;;;12.55;78.30;102202.13;4987600;28;20053;-69
2022/06/12 05:08:50;;;;;;;11.73;3.72;;;;;;;12.57;77.80;102194.72;4970235;28;20046;-70
2022/06/12 05:11:16;;;;;;;14.27;3.97;;;;;;;12.62;77.56;102198.03;4988155;28;20030;-70
2022/06/12 05:13:41;;;;;;;9.18;4.20;;;;;;;12.67;77.29;102187.72;4987207;28;20035;-70
2022/06/12 05:16:11;;;;;;;14.35;3.95;;;;;;;12.73;77.54;102195.56;4986784;28;20500;-70
2022/06/12 05:18:38;;;;;;;15.60;4.60;;;;;;;12.76;77.50;102200.81;5003807;28;20041;-70
2022/06/12 05:21:03;;;;;;;15.45;4.53;;;;;;;12.78;77.49;102196.19;5005354;28;20065;-70
2022/06/12 05:23:28;;;;;;;8.63;4.00;;;;;;;12.82;77.90;102205.91;5004368;28;20313;-69
2022/06/12 05:25:54;;;;;;;17.23;4.68;;;;;;;12.91;77.77;102199.03;5001439;28;20144;-69
2022/06/12 05:28:19;;;;;;;14.80;4.45;;;;;;;13.08;77.66;102206.19;5002501;28;20037;-69
2022/06/12 05:30:46;;;;;;;11.98;3.88;;;;;;;13.12;76.40;102200.44;5000751;28;20038;-69
2022/06/12 05:33:11;;;;;;;8.85;3.70;;;;;;;13.16;76.23;102195.69;4986115;28;20607;-69
2022/06/12 05:35:39;;;;;;;9.80;3.75;;;;;;;13.26;76.31;102203.25;4970323;28;20169;-69
2022/06/12 05:38:07;;;;;;;13.23;4.60;;;;;;;13.33;77.17;102194.66;4985871;28;20100;-70
2022/06/12 05:40:35;;;;;;;15.02;3.80;;;;;;;13.40;76.62;102196.91;4987271;28;20026;-70
2022/06/12 05:43:01;;;;;;;10.82;4.43;;;;;;;13.45;77.59;102197.50;4987138;28;20046;-70
2022/06/12 05:45:29;;;;;;;14.60;4.22;;;;;;;13.46;77.38;102199.25;4986251;28;20039;-70
2022/06/12 05:47:58;;;;;;;15.93;5.00;;;;;;;13.46;77.70;102196.53;5002411;28;20034;-69
2022/06/12 05:50:27;;;;;;;13.90;4.30;;;;;;;13.52;76.81;102198.91;4995462;28;20119;-70
2022/06/12 05:52:53;;;;;;;16.75;5.05;;;;;;;13.60;77.84;102198.38;4963007;28;20084;-69
2022/06/12 05:55:18;;;;;;;13.57;4.45;;;;;;;13.65;76.59;102198.09;4985238;28;20038;-70
2022/06/12 05:57:44;;;;;;;19.10;5.35;;;;;;;13.70;77.34;102212.34;4987166;28;20091;-69
2022/06/12 06:00:21;;;;;;;11.70;4.47;;;;;;;13.75;77.21;102210.19;4986359;28;20051;-70
2022/06/12 06:02:47;;;;;;;12.20;4.72;;;;;;;13.78;77.75;102205.41;4987697;28;20176;-69
2022/06/12 06:05:13;;;;;;;17.33;4.97;;;;;;;13.84;78.44;102209.59;4987238;28;20132;-69
2022/06/12 06:07:40;;;;;;;17.00;4.88;;;;;;;13.89;76.95;102207.44;4974789;28;20030;-70
2022/06/12 06:10:08;;;;;;;15.10;5.00;;;;;;;13.95;77.54;102207.06;4983928;28;20481;-70
2022/06/12 06:12:34;;;;;;;18.38;5.97;;;;;;;13.99;77.94;102210.50;5009749;28;20084;-70
2022/06/12 06:14:59;;;;;;;17.85;5.03;;;;;;;14.04;77.98;102214.69;4987329;28;20046;-70
2022/06/12 06:17:25;;;;;;;15.30;4.70;;;;;;;14.14;78.45;102223.19;4990887;28;20096;-70
2022/06/12 06:19:50;;;;;;;12.85;4.70;;;;;;;14.17;78.33;102222.94;4990517;28;20038;-69
2022/06/12 06:22:18;;;;;;;17.90;4.65;;;;;;;14.22;78.54;102219.91;4991737;28;20025;-69
2022/06/12 06:24:45;;;;;;;18.73;4.88;;;;;;;14.29;78.25;102216.69;4990713;28;20489;-70
2022/06/12 06:27:11;;;;;;;17.90;5.15;;;;;;;14.37;79.20;102215.31;4991193;28;20380;-70
2022/06/12 06:29:36;;;;;;;14.40;4.78;;;;;;;14.45;79.37;102213.78;4999267;28;20053;-70
2022/06/12 06:32:03;;;;;;;17.42;5.47;;;;;;;14.58;78.71;102213.88;5007921;28;20042;-70
2022/06/12 06:34:29;;;;;;;15.75;6.03;;;;;;;14.74;81.25;102227.44;5009792;28;20113;-69
2022/06/12 06:36:54;;;;;;;17.27;5.65;;;;;;;14.98;79.60;102225.75;5010454;28;20037;-70
2022/06/12 06:39:19;;;;;;;17.55;6.07;;;;;;;15.27;79.55;102226.47;5004624;28;20045;-69
2022/06/12 06:41:45;;;;;;;16.25;4.85;;;;;;;15.53;77.59;102221.88;4991231;28;20117;-70
2022/06/12 06:46:54;;;;;;;13.93;5.47;;;;;;;15.95;76.11;102229.91;4989924;28;20046;-70
2022/06/12 06:49:21;;;;;;;14.93;4.82;;;;;;;16.07;75.50;102229.00;4972638;28;20042;-69
2022/06/12 06:51:47;;;;;;;17.70;4.93;;;;;;;16.22;76.43;102236.09;4973390;28;20034;-69
2022/06/12 06:54:12;;;;;;;18.30;5.35;;;;;;;16.27;75.86;102236.66;4990478;28;20054;-69
2022/06/12 06:56:38;;;;;;;20.35;5.38;;;;;;;16.39;75.01;102234.84;4990398;28;20056;-70
2022/06/12 06:59:03;;;;;;;20.17;5.88;;;;;;;16.50;73.97;102234.03;4988624;28;20045;-70
2022/06/12 07:01:28;;;;;;;17.73;5.93;;;;;;;16.65;73.51;102234.75;4989819;28;20119;-70
2022/06/12 07:03:54;;;;;;;15.00;5.18;;;;;;;16.79;75.39;102223.63;4992394;28;21066;-69
2022/06/12 07:06:21;;;;;;;19.83;5.03;;;;;;;16.94;74.16;102224.31;4990692;28;20057;-69
2022/06/12 07:08:46;;;;;;;16.55;5.20;;;;;;;17.20;74.72;102230.50;4990772;28;20473;-69
2022/06/12 07:11:12;;;;;;;18.08;4.60;;;;;;;17.43;72.38;102234.19;4989934;28;20030;-69
2022/06/12 07:13:37;;;;;;;18.65;5.18;;;;;;;17.52;70.98;102237.09;4989453;28;20088;-70
2022/06/12 07:16:03;;;;;;;22.75;5.22;;;;;;;17.54;71.01;102243.38;4988728;28;20045;-70
2022/06/12 07:18:28;;;;;;;22.50;6.03;;;;;;;17.60;71.96;102242.00;4989334;28;20033;-70
2022/06/12 07:20:56;;;;;;;15.13;4.97;;;;;;;17.68;71.24;102234.00;4989586;28;20034;-70
2022/06/12 07:23:24;;;;;;;12.35;4.55;;;;;;;17.89;70.40;102238.81;4990051;28;20078;-70
2022/06/12 07:25:58;;;;;;;18.85;5.28;;;;;;;17.93;69.38;102241.19;4989645;28;20486;-69
2022/06/12 07:28:25;;;;;;;16.48;4.78;;;;;;;18.02;70.03;102228.53;5000337;28;20037;-71
2022/06/12 07:30:52;;;;;;;16.23;4.57;;;;;;;18.04;68.88;102238.41;5002458;28;20128;-69
2022/06/12 07:33:18;;;;;;;16.15;5.25;;;;;;;18.06;68.64;102230.91;5009815;28;20038;-70
2022/06/12 07:35:45;;;;;;;14.38;4.90;;;;;;;17.98;69.40;102240.81;5009221;28;20033;-69
2022/06/12 07:38:14;;;;;;;17.23;4.65;;;;;;;18.03;69.57;102242.19;4991792;28;20041;-70
2022/06/12 07:40:47;;;;;;;20.15;5.00;;;;;;;18.09;68.97;102238.03;4993980;28;20137;-70
2022/06/12 07:43:12;;;;;;;14.20;4.85;;;;;;;18.41;68.71;102248.28;4989078;28;20038;-70
2022/06/12 07:45:39;;;;;;;17.40;4.95;;;;;;;18.55;68.37;102248.00;4992118;28;20029;-70
2022/06/12 07:48:05;;;;;;;23.00;6.90;;;;;;;18.55;67.76;102240.59;5007638;28;20402;-69
2022/06/12 07:50:30;;;;;;;15.02;5.60;;;;;;;18.73;68.30;102249.25;4989106;28;20045;-70
2022/06/12 07:52:56;;;;;;;12.75;4.30;;;;;;;18.78;65.33;102240.56;5004630;28;20478;-70
2022/06/12 07:55:22;;;;;;;16.88;5.05;;;;;;;18.97;67.27;102254.53;4995743;28;20038;-69
2022/06/12 07:57:48;;;;;;;16.75;4.78;;;;;;;19.19;66.31;102231.50;4989755;28;20499;-70
2022/06/12 08:00:15;;;;;;;19.73;5.25;;;;;;;19.32;66.91;102240.47;4986425;28;20050;-69
2022/06/12 08:02:43;;;;;;;18.52;5.57;;;;;;;19.42;66.55;102235.00;4992661;28;20038;-70
2022/06/12 08:05:09;;;;;;;17.60;5.63;;;;;;;19.60;65.34;102233.44;4993040;28;20050;-70
2022/06/12 08:07:34;;;;;;;19.42;5.00;;;;;;;19.85;65.54;102242.28;4990749;28;20102;-70
2022/06/12 08:10:03;;;;;;;19.67;6.05;;;;;;;19.74;62.52;102239.63;4983410;28;21752;-69
2022/06/12 08:12:30;;;;;;;17.60;5.90;;;;;;;19.69;63.01;102241.91;4995423;28;20497;-70
2022/06/12 08:14:56;;;;;;;18.63;5.40;;;;;;;19.74;62.13;102234.97;4987811;28;20057;-70
2022/06/12 08:17:21;;;;;;;14.73;5.35;;;;;;;19.88;64.36;102231.84;4990003;28;20144;-69
2022/06/12 08:22:31;;;;;;;15.25;5.40;;;;;;;20.19;63.55;102236.47;4989999;28;20057;-70
2022/06/12 08:24:57;;;;;;;15.43;5.43;;;;;;;20.44;62.68;102233.22;4990356;28;20431;-69
2022/06/12 08:27:22;;;;;;;20.33;6.20;;;;;;;20.56;63.55;102236.75;4989485;28;20077;-70
2022/06/12 08:29:48;;;;;;;14.73;4.90;;;;;;;20.80;62.96;102239.13;4988539;28;20414;-70
2022/06/12 08:32:19;;;;;;;13.77;5.18;;;;;;;21.12;63.25;102225.00;4991362;28;20068;-70
2022/06/12 08:34:49;;;;;;;12.07;4.55;;;;;;;21.38;60.28;102236.38;4972364;28;20049;-71
2022/06/12 08:37:22;;;;;;;15.90;4.60;;;;;;;21.58;59.41;102240.84;4988970;28;20029;-69
2022/06/12 08:39:48;;;;;;;11.02;4.55;;;;;;;21.78;58.74;102232.53;4990849;28;20050;-71
2022/06/12 08:42:19;;;;;;;15.85;4.65;;;;;;;22.01;58.88;102231.13;4972560;28;20088;-71
2022/06/12 08:44:53;;;;;;;14.95;5.30;;;;;;;22.42;58.08;102237.22;4990046;28;20121;-71
2022/06/12 08:47:27;;;;;;;15.20;4.85;;;;;;;22.56;55.64;102228.34;4989202;28;20065;-69
2022/06/12 08:50:09;;;;;;;16.00;5.30;;;;;;;22.61;54.76;102225.97;4989203;28;20057;-69
2022/06/12 08:52:42;;;;;;;14.07;3.97;;;;;;;22.62;55.26;102218.56;5006154;28;20425;-71
2022/06/12 08:55:27;;;;;;;10.75;4.28;;;;;;;22.74;56.79;102217.28;4996542;28;20041;-70
2022/06/12 08:58:10;;;;;;;11.25;4.32;;;;;;;22.76;53.26;102214.38;4991857;28;20172;-69
2022/06/12 09:00:37;;;;;;;13.52;3.97;;;;;;;22.97;55.59;102214.94;4991247;28;20494;-71
2022/06/12 09:03:08;;;;;;;10.23;4.13;;;;;;;23.28;54.98;102214.53;5007087;28;20030;-70
2022/06/12 09:06:01;;;;;;;14.15;4.47;;;;;;;23.70;54.30;102208.28;4990209;28;20053;-70
2022/06/12 09:08:31;;;;;;;15.45;4.60;;;;;;;23.91;53.56;102211.50;4988192;28;20045;-71
2022/06/12 09:11:12;;;;;;;10.00;3.75;;;;;;;24.06;52.56;102208.97;4987449;28;20129;-70
2022/06/12 09:14:07;;;;;;;12.57;3.97;;;;;;;24.22;51.57;102205.41;4969218;28;20061;-70
2022/06/12 09:16:33;;;;;;;13.15;4.28;;;;;;;24.72;50.87;102205.44;4990890;28;20038;-70
2022/06/12 09:19:15;;;;;;;13.55;4.88;;;;;;;24.94;50.44;102210.31;4986252;28;20501;-71
2022/06/12 09:21:56;;;;;;;13.80;4.13;;;;;;;25.09;48.98;102196.63;4976135;28;20091;-70
2022/06/12 09:24:39;;;;;;;11.15;4.43;;;;;;;25.20;49.09;102206.56;4987787;28;20038;-70
2022/06/12 09:27:31;;;;;;;10.20;4.13;;;;;;;25.32;48.93;102204.28;4989510;28;20042;-70
2022/06/12 09:30:05;;;;;;;16.45;4.47;;;;;;;25.39;48.14;102208.97;4993640;28;20049;-71
2022/06/12 09:32:45;;;;;;;16.60;5.15;;;;;;;25.07;48.07;102198.72;4986797;28;20068;-70
2022/06/12 09:35:35;;;;;;;16.63;4.40;;;;;;;25.02;50.02;102203.91;4991478;28;20050;-70
2022/06/12 09:38:21;;;;;;;14.68;4.05;;;;;;;25.12;49.08;102201.84;4986109;28;20046;-71
2022/06/12 09:40:49;;;;;;;13.60;4.05;;;;;;;24.94;48.70;102195.53;4988536;28;20046;-70
2022/06/12 09:43:46;;;;;;;10.13;4.03;;;;;;;24.88;48.88;102202.66;4993989;28;20089;-70
2022/06/12 09:46:36;;;;;;;10.90;3.60;;;;;;;24.93;50.50;102207.72;4992499;28;20043;-70
2022/06/12 09:49:32;;;;;;;12.82;4.00;;;;;;;24.70;46.54;102210.28;5001714;28;20037;-71
2022/06/12 09:52:39;;;;;;;12.60;3.90;;;;;;;24.40;49.31;102198.75;5005459;28;20438;-71
2022/06/12 09:55:23;;;;;;;13.13;3.90;;;;;;;24.30;49.29;102200.75;4981905;28;20136;-71
2022/06/12 09:58:00;;;;;;;10.73;3.63;;;;;;;24.59;48.44;102205.06;5004925;28;20038;-70
2022/06/12 10:00:33;;;;;;;17.98;4.55;;;;;;;24.76;47.00;102200.38;4997068;28;20057;-69
2022/06/12 10:03:17;;;;;;;13.82;4.05;;;;;;;25.16;48.48;102202.38;5005595;28;20169;-70
2022/06/12 10:05:56;;;;;;;10.55;3.42;;;;;;;25.05;45.85;102194.34;4988464;28;20061;-71
2022/06/12 10:08:30;;;;;;;11.70;3.13;;;;;;;25.16;46.86;102191.22;5004112;28;20112;-70
2022/06/12 10:11:11;;;;;;;8.55;2.70;;;;;;;25.24;46.05;102193.16;5001323;28;20041;-71
2022/06/12 10:13:46;;;;;;;13.00;3.05;;;;;;;25.45;46.97;102193.47;5000289;28;20088;-70
2022/06/12 10:16:21;;;;;;;10.55;2.60;;;;;;;25.74;45.12;102180.88;5000303;28;20481;-70
2022/06/12 10:18:55;;;;;;;8.07;2.53;;;;;;;25.73;44.71;102181.91;4986057;28;20347;-70
2022/06/12 10:21:23;;;;;;;7.20;2.55;;;;;;;25.81;45.57;102181.94;5001429;28;20119;-70
2022/06/12 10:23:50;;;;;;;8.00;2.70;;;;;;;26.22;44.42;102177.06;5000233;28;20045;-70
2022/06/12 10:26:24;;;;;;;16.45;3.22;;;;;;;26.29;44.69;102186.44;5001427;28;20059;-69
2022/06/12 10:29:12;;;;;;;11.57;3.05;;;;;;;26.37;42.61;102186.41;4995062;28;20155;-69
2022/06/12 10:31:48;;;;;;;7.75;2.88;;;;;;;26.36;44.36;102169.84;4973745;28;20038;-71
2022/06/12 10:34:28;;;;;;;9.70;3.63;;;;;;;26.75;44.07;102180.97;4996025;28;20456;-71
2022/06/12 10:36:53;;;;;;;8.18;2.97;;;;;;;26.89;41.64;102174.56;5005531;28;20386;-70
2022/06/12 10:39:22;;;;;;;12.63;2.88;;;;;;;26.72;43.32;102170.19;5003292;28;20034;-71
2022/06/12 10:41:57;;;;;;;8.90;3.13;;;;;;;26.34;41.86;102180.31;5005917;28;20171;-70
2022/06/12 10:44:43;;;;;;;8.30;2.65;;;;;;;26.15;44.01;102182.50;4994091;28;20034;-70
2022/06/12 10:47:09;;;;;;;12.05;2.58;;;;;;;25.96;42.90;102171.75;5001879;28;20037;-71
2022/06/12 10:49:35;;;;;;;9.05;2.85;;;;;;;25.63;43.50;102177.41;5005069;28;20065;-70
2022/06/12 10:52:06;;;;;;;12.48;3.20;;;;;;;25.47;44.51;102183.03;5002670;28;20068;-70
2022/06/12 10:54:32;;;;;;;;;;;;;;;25.96;46.16;102174.56;5003848;28;20030;-71
2022/06/12 10:57:12;;;;;;;10.05;2.47;;;;;;;25.80;44.85;102171.84;4989665;28;19975;-70
2022/06/12 10:59:42;;;;;;;9.15;2.50;;;;;;;26.12;44.88;102171.72;4988785;28;20177;-71
2022/06/12 11:02:55;;;;;;;10.65;2.85;;;;;;;26.53;43.67;102165.91;4987737;28;20089;-70
2022/06/12 11:05:36;;;;;;;8.77;2.50;;;;;;;26.99;42.50;102159.50;4924079;28;20046;-70
2022/06/12 11:08:11;;;;;;;13.38;3.03;;;;;;;26.91;42.06;102163.25;5005323;28;20034;-71
2022/06/12 11:10:43;;;;;;;9.38;2.95;;;;;;;26.77;43.29;102164.03;4989735;28;20056;-70
2022/06/12 11:13:25;;;;;;;10.35;3.30;;;;;;;26.44;43.23;102167.06;5005579;28;20474;-70
2022/06/12 11:16:09;;;;;;;;;;;;;;;26.49;42.63;102160.88;4987505;28;20443;-70
2022/06/12 11:18:49;;;;;;;11.10;3.00;;;;;;;26.26;44.12;102160.84;4990393;28;20452;-71
2022/06/12 11:21:37;;;;;;;9.90;3.00;;;;;;;26.31;43.73;102163.94;5007062;28;20508;-71
2022/06/12 11:24:13;;;;;;;12.60;3.10;;;;;;;26.40;43.83;102165.66;5006994;28;20354;-71
2022/06/12 11:27:00;;;;;;;10.35;2.95;;;;;;;26.81;44.34;102159.81;4990721;28;20042;-71
2022/06/12 11:29:33;;;;;;;12.40;3.22;;;;;;;27.12;42.86;102165.34;5000418;28;20045;-71
2022/06/12 11:32:34;;;;;;;8.52;2.28;;;;;;;27.44;42.31;102155.78;4995900;28;20477;-71
2022/06/12 11:35:18;;;;;;;8.05;2.40;;;;;;;27.13;42.50;102147.53;4976321;28;20054;-71
2022/06/12 11:38:00;;;;;;;6.80;2.38;;;;;;;27.26;40.77;102149.69;4989835;28;20045;-71
2022/06/12 11:40:53;;;;;;;8.65;2.33;;;;;;;26.99;40.91;102153.91;4994179;28;20042;-70
2022/06/12 11:43:41;;;;;;;10.93;3.20;;;;;;;27.02;41.10;102146.03;5004692;28;20918;-70
2022/06/12 11:46:44;;;;;;;8.13;2.70;;;;;;;26.98;41.05;102141.00;5002102;28;20116;-71
2022/06/12 11:49:25;;;;;;;8.70;2.60;;;;;;;26.67;38.96;102147.50;4999504;28;20551;-69
2022/06/12 11:51:53;;;;;;;6.55;2.60;;;;;;;26.69;41.25;102143.50;4986037;28;20041;-70
2022/06/12 11:54:35;;;;;;;7.90;2.55;;;;;;;26.90;40.58;102130.75;4997071;28;20076;-71
2022/06/12 11:57:00;;;;;;;8.52;2.22;;;;;;;27.06;41.77;102132.56;5006863;28;20405;-71
2022/06/12 11:59:47;;;;;;;12.05;3.00;;;;;;;27.13;41.27;102131.63;5003826;28;20146;-71